createdAt,value
2024-02-16T00:01:57.323Z,100208.19
2024-02-16T00:04:25.120Z,100198.33
2024-02-16T00:06:52.810Z,100192.45
2024-02-16T00:09:20.661Z,100182.31
2024-02-16T00:11:48.407Z,100176.52
2024-02-16T00:14:16.342Z,100177.52
2024-02-16T00:16:43.921Z,100177.34
2024-02-16T00:19:11.722Z,100177.54
2024-02-16T00:21:39.528Z,100176.73
2024-02-16T00:24:07.016Z,100177.38
2024-02-16T00:26:34.558Z,100176.55
2024-02-16T00:29:02.115Z,100174.02
2024-02-16T00:31:29.884Z,100172.98
2024-02-16T00:33:57.533Z,100176.11
2024-02-16T00:36:25.348Z,100173.52
2024-02-16T00:38:53.176Z,100169.81
2024-02-16T00:41:20.933Z,100167.61
2024-02-16T00:43:48.684Z,100169.91
2024-02-16T00:46:16.237Z,100165.03
2024-02-16T00:48:43.906Z,100168.43
2024-02-16T00:51:11.726Z,100164.27
2024-02-16T00:53:39.334Z,100165.60
2024-02-16T00:56:06.885Z,100161.59
2024-02-16T00:58:34.445Z,100160.33
2024-02-16T01:01:02.116Z,100158.42
2024-02-16T01:03:29.831Z,100156.38
2024-02-16T01:05:57.554Z,100156.27
2024-02-16T01:08:25.106Z,100155.87
2024-02-16T01:10:52.803Z,100150.56
2024-02-16T01:13:20.512Z,100150.65
2024-02-16T01:15:48.078Z,100149.17
2024-02-16T01:18:16.034Z,100149.79
2024-02-16T01:20:43.805Z,100150.61
2024-02-16T01:23:11.378Z,100151.77
2024-02-16T01:25:38.953Z,100149.95
2024-02-16T01:28:06.485Z,100149.07
2024-02-16T01:30:34.186Z,100149.56
2024-02-16T01:33:02.067Z,100149.21
2024-02-16T01:35:29.904Z,100150.48
2024-02-16T01:37:57.547Z,100145.52
2024-02-16T01:40:25.100Z,100141.02
2024-02-16T01:42:52.763Z,100136.36
2024-02-16T01:45:20.452Z,100132.55
2024-02-16T01:47:48.242Z,100134.45
2024-02-16T01:50:15.963Z,100132.58
2024-02-16T01:52:43.610Z,100130.92
2024-02-16T01:55:11.225Z,100129.08
2024-02-16T01:57:39.068Z,100128.55
2024-02-16T02:00:07.026Z,100129.83
2024-02-16T02:02:34.675Z,100125.85
2024-02-16T02:05:02.341Z,100127.31
2024-02-16T02:07:30.292Z,100130.91
2024-02-16T02:09:58.058Z,100131.87
2024-02-16T02:12:25.647Z,100132.61
2024-02-16T02:14:53.326Z,100131.89
2024-02-16T02:17:21.079Z,100131.77
2024-02-16T02:19:48.880Z,100136.11
2024-02-16T02:22:17.032Z,100134.05
2024-02-16T02:24:44.738Z,100135.34
2024-02-16T02:27:12.439Z,100138.38
2024-02-16T02:29:39.961Z,100139.30
2024-02-16T02:32:07.731Z,100141.00
2024-02-16T02:34:35.437Z,100139.83
2024-02-16T02:37:03.146Z,100137.68
2024-02-16T02:39:30.776Z,100133.02
2024-02-16T02:41:58.814Z,100134.73
2024-02-16T02:44:26.548Z,100132.88
2024-02-16T02:46:54.106Z,100134.78
2024-02-16T02:49:21.920Z,100136.73
2024-02-16T02:51:49.635Z,100136.74
2024-02-16T02:54:17.559Z,100143.73
2024-02-16T02:56:45.171Z,100140.45
2024-02-16T02:59:12.827Z,100139.20
2024-02-16T03:01:40.692Z,100137.30
2024-02-16T03:04:08.237Z,100136.52
2024-02-16T03:06:36.034Z,100134.58
2024-02-16T03:09:03.701Z,100139.73
2024-02-16T03:11:31.290Z,100134.32
2024-02-16T03:13:59.087Z,100134.70
2024-02-16T03:16:26.665Z,100132.02
2024-02-16T03:18:54.366Z,100132.11
2024-02-16T03:21:22.124Z,100132.61
2024-02-16T03:23:49.929Z,100132.26
2024-02-16T03:26:18.018Z,100129.38
2024-02-16T03:28:45.681Z,100131.26
2024-02-16T03:31:13.242Z,100131.14
2024-02-16T03:33:41.023Z,100129.36
2024-02-16T03:36:08.775Z,100132.38
2024-02-16T03:38:36.337Z,100139.70
2024-02-16T03:41:03.990Z,100137.91
2024-02-16T03:43:31.657Z,100137.11
2024-02-16T03:45:59.516Z,100136.58
2024-02-16T03:48:27.242Z,100138.58
2024-02-16T03:50:55.058Z,100138.16
2024-02-16T03:53:22.603Z,100140.01
2024-02-16T03:55:50.366Z,100143.18
2024-02-16T03:58:18.028Z,100142.87
2024-02-16T04:00:45.765Z,100146.06
2024-02-16T04:03:13.504Z,100143.05
2024-02-16T04:05:41.623Z,100139.20
2024-02-16T04:08:09.187Z,100134.30
2024-02-16T04:10:36.854Z,100130.41
2024-02-16T04:13:04.418Z,100126.85
2024-02-16T04:15:32.230Z,100119.38
2024-02-16T04:18:00.082Z,100122.02
2024-02-16T04:20:27.806Z,100118.92
2024-02-16T04:22:55.357Z,100119.05
2024-02-16T04:25:22.917Z,100120.42
2024-02-16T04:27:50.883Z,100117.21
2024-02-16T04:30:18.474Z,100120.34
2024-02-16T04:32:46.221Z,100118.70
2024-02-16T04:35:13.969Z,100115.40
2024-02-16T04:37:41.630Z,100114.84
2024-02-16T04:40:09.296Z,100110.08
2024-02-16T04:42:36.868Z,100110.60
2024-02-16T04:45:06.573Z,100114.52
2024-02-16T04:47:34.844Z,100117.05
2024-02-16T04:50:02.681Z,100118.77
2024-02-16T04:52:31.259Z,100117.77
2024-02-16T04:54:59.150Z,100116.27
2024-02-16T04:57:26.722Z,100107.14
2024-02-16T04:59:54.403Z,100107.33
2024-02-16T05:02:22.446Z,100103.78
2024-02-16T05:04:50.121Z,100101.63
2024-02-16T05:07:18.164Z,100102.45
2024-02-16T05:09:45.838Z,100100.21
2024-02-16T05:12:13.591Z,100100.11
2024-02-16T05:14:41.255Z,100096.23
2024-02-16T05:17:08.825Z,100097.65
2024-02-16T05:19:36.452Z,100093.10
2024-02-16T05:22:04.132Z,100094.09
2024-02-16T05:24:31.787Z,100092.52
2024-02-16T05:26:59.496Z,100094.26
2024-02-16T05:29:27.337Z,100094.94
2024-02-16T05:31:54.997Z,100090.23
2024-02-16T05:34:22.604Z,100089.73
2024-02-16T05:36:50.433Z,100090.86
2024-02-16T05:39:17.886Z,100093.52
2024-02-16T05:41:45.533Z,100097.65
2024-02-16T05:44:12.882Z,100100.60
2024-02-16T05:46:40.441Z,100098.34
2024-02-16T05:49:08.082Z,100100.20
2024-02-16T05:51:36.068Z,100102.76
2024-02-16T05:54:04.135Z,100101.59
2024-02-16T05:56:31.810Z,100104.16
2024-02-16T05:58:59.475Z,100104.14
2024-02-16T06:01:27.046Z,100097.16
2024-02-16T06:03:54.603Z,100099.06
2024-02-16T06:06:22.358Z,100103.30
2024-02-16T06:08:50.161Z,100110.73
2024-02-16T06:11:17.866Z,100109.77
2024-02-16T06:13:45.537Z,100107.51
2024-02-16T06:16:13.206Z,100112.63
2024-02-16T06:18:40.999Z,100114.23
2024-02-16T06:21:08.761Z,100115.88
2024-02-16T06:23:36.401Z,100119.96
2024-02-16T06:26:04.159Z,100120.02
2024-02-16T06:28:31.815Z,100118.64
2024-02-16T06:30:59.476Z,100117.27
2024-02-16T06:33:27.216Z,100111.19
2024-02-16T06:35:55.255Z,100107.92
2024-02-16T06:38:22.972Z,100112.27
2024-02-16T06:40:50.523Z,100110.96
2024-02-16T06:43:18.086Z,100108.52
2024-02-16T06:45:45.685Z,100108.38
2024-02-16T06:48:13.753Z,100111.24
2024-02-16T06:50:41.552Z,100116.64
2024-02-16T06:53:09.364Z,100114.55
2024-02-16T06:55:37.320Z,100113.05
2024-02-16T06:58:05.001Z,100108.55
2024-02-16T07:00:32.713Z,100108.92
2024-02-16T07:03:00.438Z,100109.81
2024-02-16T07:05:28.107Z,100114.86
2024-02-16T07:07:55.723Z,100105.05
2024-02-16T07:10:23.279Z,100111.80
2024-02-16T07:12:50.884Z,100118.57
2024-02-16T07:15:18.832Z,100117.70
2024-02-16T07:17:46.457Z,100116.63
2024-02-16T07:20:14.321Z,100119.21
2024-02-16T07:22:41.997Z,100119.35
2024-02-16T07:25:09.656Z,100116.98
2024-02-16T07:27:37.259Z,100114.19
2024-02-16T07:30:04.912Z,100120.48
2024-02-16T07:32:32.506Z,100121.59
2024-02-16T07:35:00.180Z,100122.66
2024-02-16T07:37:28.174Z,100121.04
2024-02-16T07:39:56.053Z,100116.38
2024-02-16T07:42:23.623Z,100116.19
2024-02-16T07:44:51.340Z,100110.11
2024-02-16T07:47:19.028Z,100109.98
2024-02-16T07:49:46.802Z,100110.66
2024-02-16T07:52:14.552Z,100109.62
2024-02-16T07:54:42.317Z,100107.41
2024-02-16T07:57:10.326Z,100101.61
2024-02-16T07:59:37.940Z,100109.21
2024-02-16T08:02:05.614Z,100104.30
2024-02-16T08:04:33.264Z,100103.14
2024-02-16T08:07:01.118Z,100105.66
2024-02-16T08:09:28.897Z,100099.37
2024-02-16T08:11:56.517Z,100107.40
2024-02-16T08:14:24.319Z,100104.60
2024-02-16T08:17:00.966Z,100110.29
2024-02-16T08:19:35.937Z,100107.93
2024-02-16T08:22:03.580Z,100111.09
2024-02-16T08:24:31.195Z,100108.12
2024-02-16T08:26:58.936Z,100115.48
2024-02-16T08:29:26.475Z,100113.27
2024-02-16T08:31:54.021Z,100112.20
2024-02-16T08:34:21.644Z,100113.60
2024-02-16T08:36:49.859Z,100111.53
2024-02-16T08:39:17.349Z,100119.85
2024-02-16T08:41:45.090Z,100120.59
2024-02-16T08:44:12.462Z,100119.10
2024-02-16T08:46:40.103Z,100122.01
2024-02-16T08:49:07.918Z,100121.16
2024-02-16T08:51:35.854Z,100124.42
2024-02-16T08:54:05.872Z,100116.88
2024-02-16T08:56:36.784Z,100120.60
2024-02-16T08:59:04.341Z,100125.77
2024-02-16T09:01:32.365Z,100124.27
2024-02-16T09:04:02.177Z,100127.59
2024-02-16T09:06:30.555Z,100123.33
2024-02-16T09:08:58.318Z,100117.06
2024-02-16T09:11:26.111Z,100118.90
2024-02-16T09:13:53.698Z,100117.63
2024-02-16T09:16:24.299Z,100118.99
2024-02-16T09:18:53.183Z,100124.55
2024-02-16T09:21:21.082Z,100131.09
2024-02-16T09:23:48.844Z,100130.05
2024-02-16T09:26:16.533Z,100126.52
2024-02-16T09:28:44.065Z,100130.10
2024-02-16T09:31:11.721Z,100134.58
2024-02-16T09:33:39.398Z,100130.60
2024-02-16T09:36:07.166Z,100130.54
2024-02-16T09:38:34.820Z,100135.59
2024-02-16T09:41:02.365Z,100133.15
2024-02-16T09:43:29.950Z,100133.50
2024-02-16T09:45:57.531Z,100136.09
2024-02-16T09:48:25.320Z,100132.59
2024-02-16T09:50:53.194Z,100132.00
2024-02-16T09:53:20.974Z,100128.90
2024-02-16T09:55:48.547Z,100129.13
2024-02-16T09:58:16.198Z,100132.23
2024-02-16T10:00:43.914Z,100136.09
2024-02-16T10:03:11.866Z,100142.44
2024-02-16T10:05:39.554Z,100145.50
2024-02-16T10:08:07.261Z,100144.61
2024-02-16T10:10:34.924Z,100139.95
2024-02-16T10:13:02.482Z,100140.25
2024-02-16T10:15:30.187Z,100143.13
2024-02-16T10:17:58.024Z,100133.55
2024-02-16T10:20:25.779Z,100134.08
2024-02-16T10:22:53.321Z,100130.66
2024-02-16T10:25:21.189Z,100126.04
2024-02-16T10:27:48.851Z,100121.31
2024-02-16T10:30:16.513Z,100114.41
2024-02-16T10:32:44.398Z,100110.73
2024-02-16T10:35:12.013Z,100110.34
2024-02-16T10:37:39.816Z,100108.73
2024-02-16T10:40:07.375Z,100108.77
2024-02-16T10:42:34.969Z,100107.27
2024-02-16T10:45:03.059Z,100102.08
2024-02-16T10:47:30.799Z,100100.52
2024-02-16T10:49:58.661Z,100098.40
2024-02-16T10:52:26.408Z,100091.22
2024-02-16T10:54:54.051Z,100088.90
2024-02-16T10:57:21.632Z,100084.59
2024-02-16T10:59:49.365Z,100083.67
2024-02-16T11:02:16.942Z,100082.36
2024-02-16T11:07:30.291Z,100079.80
2024-02-16T11:09:58.144Z,100082.83
2024-02-16T11:12:25.763Z,100076.37
2024-02-16T11:14:53.506Z,100075.34
2024-02-16T11:17:21.051Z,100072.77
2024-02-16T11:19:48.911Z,100067.27
2024-02-16T11:22:16.658Z,100064.29
2024-02-16T11:24:44.536Z,100062.73
2024-02-16T11:27:12.110Z,100060.16
2024-02-16T11:29:39.883Z,100062.52
2024-02-16T11:32:07.497Z,100055.27
2024-02-16T11:34:35.178Z,100057.96
2024-02-16T11:37:02.823Z,100055.02
2024-02-16T11:39:30.579Z,100047.86
2024-02-16T11:41:58.269Z,100047.91
2024-02-16T11:44:26.239Z,100048.30
2024-02-16T11:46:53.882Z,100045.78
2024-02-16T11:49:21.552Z,100046.36
2024-02-16T11:51:49.519Z,100043.01
2024-02-16T11:54:16.982Z,100044.65
2024-02-16T11:56:44.643Z,100041.77
2024-02-16T11:59:12.299Z,100036.45
2024-02-16T12:01:39.974Z,100041.94
2024-02-16T12:04:07.514Z,100041.84
2024-02-16T12:06:35.332Z,100039.91
2024-02-16T12:09:03.368Z,100034.56
2024-02-16T12:11:31.115Z,100033.86
2024-02-16T12:13:58.780Z,100036.45
2024-02-16T12:16:26.441Z,100038.54
2024-02-16T12:18:54.065Z,100034.02
2024-02-16T12:21:21.997Z,100034.98
2024-02-16T12:23:49.830Z,100032.85
2024-02-16T12:26:17.493Z,100031.56
2024-02-16T12:28:45.052Z,100029.95
2024-02-16T12:31:13.041Z,100026.52
2024-02-16T12:33:40.790Z,100029.30
2024-02-16T12:36:08.703Z,100021.23
2024-02-16T12:38:36.228Z,100019.30
2024-02-16T12:41:03.906Z,100020.17
2024-02-16T12:43:31.458Z,100015.13
2024-02-16T12:45:59.053Z,100010.80
2024-02-16T12:48:26.887Z,100007.89
2024-02-16T12:50:55.158Z,100007.04
2024-02-16T12:53:22.828Z,100008.78
2024-02-16T12:55:50.500Z,100007.71
2024-02-16T12:58:17.966Z,100005.15
2024-02-16T13:00:45.697Z,100004.55
2024-02-16T13:03:13.572Z,99998.02
2024-02-16T13:05:41.422Z,99999.05
2024-02-16T13:08:09.122Z,99992.26
2024-02-16T13:10:36.758Z,99989.48
2024-02-16T13:13:04.730Z,99987.95
2024-02-16T13:15:32.374Z,99991.73
2024-02-16T13:18:00.486Z,99984.58
2024-02-16T13:20:28.353Z,99982.25
2024-02-16T13:22:55.916Z,99980.77
2024-02-16T13:25:23.641Z,99983.20
2024-02-16T13:27:51.216Z,99980.30
2024-02-16T13:30:18.837Z,99984.45
2024-02-16T13:32:46.567Z,99985.64
2024-02-16T13:35:15.776Z,99982.39
2024-02-16T13:37:44.397Z,99983.02
2024-02-16T13:40:12.167Z,99984.56
2024-02-16T13:42:39.751Z,99984.22
2024-02-16T13:45:07.501Z,99987.92
2024-02-16T13:47:35.265Z,99988.54
2024-02-16T13:50:02.853Z,99988.90
2024-02-16T13:52:30.545Z,99987.31
2024-02-16T13:54:58.234Z,99986.09
2024-02-16T13:57:25.795Z,99987.41
2024-02-16T13:59:53.439Z,99990.14
2024-02-16T14:02:21.078Z,99989.23
2024-02-16T14:04:48.679Z,99991.67
2024-02-16T14:07:16.440Z,99989.27
2024-02-16T14:09:44.434Z,99990.53
2024-02-16T14:12:12.278Z,99983.73
2024-02-16T14:14:39.895Z,99986.45
2024-02-16T14:17:07.555Z,99984.63
2024-02-16T14:19:35.842Z,99985.92
2024-02-16T14:22:03.736Z,99976.45
2024-02-16T14:24:31.687Z,99977.67
2024-02-16T14:26:59.260Z,99976.02
2024-02-16T14:29:26.878Z,99977.63
2024-02-16T14:31:54.544Z,99977.89
2024-02-16T14:34:22.112Z,99970.70
2024-02-16T14:36:50.115Z,99974.39
2024-02-16T14:39:17.648Z,99969.75
2024-02-16T14:41:45.500Z,99966.98
2024-02-16T14:44:13.151Z,99971.76
2024-02-16T14:46:40.805Z,99972.70
2024-02-16T14:49:08.569Z,99967.73
2024-02-16T14:51:36.563Z,99969.54
2024-02-16T14:54:04.349Z,99973.47
2024-02-16T14:56:31.985Z,99977.05
2024-02-16T14:58:59.640Z,99975.25
2024-02-16T15:01:27.621Z,99975.02
2024-02-16T15:03:55.324Z,99979.98
2024-02-16T15:06:23.108Z,99979.29
2024-02-16T15:08:50.930Z,99975.48
2024-02-16T15:11:18.699Z,99975.86
2024-02-16T15:13:52.170Z,99977.21
2024-02-16T15:16:19.827Z,99974.27
2024-02-16T15:18:47.608Z,99969.02
2024-02-16T15:21:15.325Z,99964.67
2024-02-16T15:23:43.427Z,99957.47
2024-02-16T15:26:11.090Z,99959.09
2024-02-16T15:28:39.060Z,99953.89
2024-02-16T15:31:06.635Z,99950.73
2024-02-16T15:33:34.370Z,99948.98
2024-02-16T15:36:02.101Z,99947.31
2024-02-16T15:38:29.699Z,99946.91
2024-02-16T15:40:57.266Z,99950.65
2024-02-16T15:43:25.127Z,99952.65
2024-02-16T15:45:52.757Z,99950.37
2024-02-16T15:48:23.553Z,99950.70
2024-02-16T15:50:54.999Z,99950.86
2024-02-16T15:53:23.659Z,99953.04
2024-02-16T15:55:51.211Z,99955.16
2024-02-16T15:58:18.562Z,99954.30
2024-02-16T16:00:46.193Z,99958.55
2024-02-16T16:03:13.994Z,99959.93
2024-02-16T16:05:41.785Z,99960.02
2024-02-16T16:08:09.459Z,99962.23
2024-02-16T16:10:37.085Z,99964.45
2024-02-16T16:13:04.653Z,99968.52
2024-02-16T16:15:32.232Z,99967.33
2024-02-16T16:17:59.945Z,99963.45
2024-02-16T16:20:27.917Z,99966.29
2024-02-16T16:22:55.595Z,99966.73
2024-02-16T16:25:23.571Z,99962.70
2024-02-16T16:27:51.195Z,99966.70
2024-02-16T16:30:19.044Z,99966.15
2024-02-16T16:32:46.694Z,99967.84
2024-02-16T16:35:14.476Z,99970.50
2024-02-16T16:37:42.281Z,99971.39
2024-02-16T16:40:09.937Z,99972.10
2024-02-16T16:42:37.610Z,99969.34
2024-02-16T16:45:05.735Z,99969.28
2024-02-16T16:47:33.360Z,99971.59
2024-02-16T16:50:01.114Z,99974.08
2024-02-16T16:52:28.866Z,99975.96
2024-02-16T16:54:56.434Z,99975.70
2024-02-16T16:57:24.138Z,99974.35
2024-02-16T16:59:51.854Z,99978.39
2024-02-16T17:02:19.609Z,99977.77
2024-02-16T17:04:47.592Z,99972.50
2024-02-16T17:07:15.354Z,99972.46
2024-02-16T17:09:43.088Z,99973.30
2024-02-16T17:12:10.909Z,99975.89
2024-02-16T17:14:38.632Z,99975.41
2024-02-16T17:17:06.300Z,99976.61
2024-02-16T17:19:34.365Z,99982.53
2024-02-16T17:22:02.229Z,99984.79
2024-02-16T17:24:29.905Z,99986.99
2024-02-16T17:26:57.922Z,99986.80
2024-02-16T17:29:25.633Z,99987.62
2024-02-16T17:31:53.300Z,99985.65
2024-02-16T17:34:20.815Z,99988.09
2024-02-16T17:36:48.692Z,99986.13
2024-02-16T17:39:16.282Z,99986.02
2024-02-16T17:41:43.828Z,99985.06
2024-02-16T17:44:11.401Z,99987.54
2024-02-16T17:46:41.401Z,99993.28
2024-02-16T17:49:09.398Z,99999.02
2024-02-16T17:51:37.164Z,100012.40
2024-02-16T17:54:05.087Z,100013.59
2024-02-16T17:56:32.873Z,100012.63
2024-02-16T17:59:00.438Z,100013.05
2024-02-16T18:01:28.113Z,100011.44
2024-02-16T18:03:55.779Z,100007.48
2024-02-16T18:06:23.665Z,100004.91
2024-02-16T18:08:51.398Z,100001.00
2024-02-16T18:11:18.939Z,100003.45
2024-02-16T18:13:46.496Z,99997.70
2024-02-16T18:16:14.159Z,99995.13
2024-02-16T18:18:41.984Z,99997.96
2024-02-16T18:21:09.723Z,100002.70
2024-02-16T18:23:37.552Z,100003.17
2024-02-16T18:26:05.117Z,100002.47
2024-02-16T18:28:42.011Z,100005.00
2024-02-16T18:31:14.360Z,100002.73
2024-02-16T18:33:42.182Z,100001.98
2024-02-16T18:36:09.925Z,100005.43
2024-02-16T18:38:37.547Z,100004.48
2024-02-16T18:41:05.122Z,100004.70
2024-02-16T18:43:32.683Z,100005.27
2024-02-16T18:46:00.334Z,100012.08
2024-02-16T18:48:28.097Z,100015.48
2024-02-16T18:50:55.958Z,100020.71
2024-02-16T18:53:23.614Z,100023.74
2024-02-16T18:55:51.287Z,100018.70
2024-02-16T18:58:18.743Z,100017.61
2024-02-16T19:00:46.358Z,100019.13
2024-02-16T19:03:14.243Z,100022.56
2024-02-16T19:05:41.938Z,100028.33
2024-02-16T19:08:11.642Z,100022.27
2024-02-16T19:10:39.647Z,100026.84
2024-02-16T19:13:07.277Z,100019.99
2024-02-16T19:15:35.462Z,100019.54
2024-02-16T19:18:03.190Z,100021.27
2024-02-16T19:20:31.069Z,100019.63
2024-02-16T19:22:58.622Z,100023.69
2024-02-16T19:25:26.313Z,100024.60
2024-02-16T19:27:54.044Z,100027.02
2024-02-16T19:30:25.049Z,100021.90
2024-02-16T19:32:53.393Z,100021.67
2024-02-16T19:35:21.079Z,100022.81
2024-02-16T19:37:49.101Z,100023.77
2024-02-16T19:40:16.671Z,100026.76
2024-02-16T19:42:44.634Z,100024.33
2024-02-16T19:45:12.362Z,100022.92
2024-02-16T19:47:40.268Z,100026.75
2024-02-16T19:50:09.835Z,100025.47
2024-02-16T19:52:38.034Z,100028.88
2024-02-16T19:55:05.635Z,100026.58
2024-02-16T19:57:33.803Z,100031.42
2024-02-16T20:00:01.431Z,100030.22
2024-02-16T20:02:29.105Z,100029.30
2024-02-16T20:04:56.708Z,100034.54
2024-02-16T20:07:24.594Z,100035.37
2024-02-16T20:09:52.389Z,100037.48
2024-02-16T20:12:20.072Z,100037.07
2024-02-16T20:14:47.915Z,100040.58
2024-02-16T20:17:15.880Z,100043.38
2024-02-16T20:19:43.691Z,100040.02
2024-02-16T20:22:11.508Z,100045.40
2024-02-16T20:24:48.020Z,100042.52
2024-02-16T20:27:15.877Z,100049.30
2024-02-16T20:29:43.511Z,100052.87
2024-02-16T20:32:11.159Z,100050.73
2024-02-16T20:34:38.817Z,100052.04
2024-02-16T20:37:06.483Z,100050.34
2024-02-16T20:39:35.910Z,100055.38
2024-02-16T20:42:04.887Z,100052.77
2024-02-16T20:44:32.542Z,100053.77
2024-02-16T20:47:00.203Z,100052.59
2024-02-16T20:49:27.790Z,100055.39
2024-02-16T20:51:55.323Z,100053.32
2024-02-16T20:54:22.697Z,100054.17
2024-02-16T20:56:50.350Z,100051.30
2024-02-16T20:59:18.407Z,100052.09
2024-02-16T21:01:45.990Z,100047.81
2024-02-16T21:04:13.939Z,100048.40
2024-02-16T21:06:41.821Z,100048.98
2024-02-16T21:09:09.691Z,100051.27
2024-02-16T21:11:37.428Z,100045.59
2024-02-16T21:14:05.198Z,100053.47
2024-02-16T21:16:32.750Z,100053.83
2024-02-16T21:19:00.533Z,100053.95
2024-02-16T21:21:28.246Z,100051.48
2024-02-16T21:23:56.377Z,100053.21
2024-02-16T21:26:24.023Z,100049.65
2024-02-16T21:28:51.576Z,100046.39
2024-02-16T21:31:19.237Z,100052.27
2024-02-16T21:33:46.976Z,100052.20
2024-02-16T21:36:14.695Z,100054.71
2024-02-16T21:38:42.526Z,100052.00
2024-02-16T21:41:10.100Z,100049.04
2024-02-16T21:43:37.959Z,100047.10
2024-02-16T21:46:05.661Z,100046.77
2024-02-16T21:48:39.593Z,100050.73
2024-02-16T21:51:11.918Z,100054.11
2024-02-16T21:53:39.555Z,100053.14
2024-02-16T21:56:07.122Z,100054.90
2024-02-16T21:58:34.776Z,100052.77
2024-02-16T22:01:02.805Z,100053.58
2024-02-16T22:03:30.594Z,100054.16
2024-02-16T22:05:58.413Z,100057.15
2024-02-16T22:08:26.039Z,100057.27
2024-02-16T22:10:53.908Z,100056.27
2024-02-16T22:13:21.570Z,100055.77
2024-02-16T22:15:49.147Z,100056.83
2024-02-16T22:18:16.771Z,100050.21
2024-02-16T22:20:44.563Z,100048.77
2024-02-16T22:23:12.420Z,100050.27
2024-02-16T22:25:40.074Z,100053.84
2024-02-16T22:28:07.641Z,100054.29
2024-02-16T22:30:35.238Z,100054.59
2024-02-16T22:33:02.890Z,100052.24
2024-02-16T22:35:30.719Z,100055.30
2024-02-16T22:37:58.280Z,100056.30
2024-02-16T22:40:25.947Z,100058.07
2024-02-16T22:42:53.869Z,100057.67
2024-02-16T22:45:21.622Z,100060.70
2024-02-16T22:47:49.296Z,100059.48
2024-02-16T22:50:17.086Z,100061.52
2024-02-16T22:52:44.761Z,100065.12
2024-02-16T22:55:12.461Z,100070.00
2024-02-16T22:57:40.211Z,100076.04
2024-02-16T23:00:07.927Z,100075.96
2024-02-16T23:02:35.916Z,100078.23
2024-02-16T23:05:03.586Z,100079.63
2024-02-16T23:07:31.187Z,100082.73
2024-02-16T23:09:58.998Z,100086.73
2024-02-16T23:12:26.596Z,100083.20
2024-02-16T23:14:54.226Z,100082.64
2024-02-16T23:17:21.883Z,100080.27
2024-02-16T23:19:49.475Z,100082.02
2024-02-16T23:22:17.104Z,100085.83
2024-02-16T23:24:44.821Z,100087.37
2024-02-16T23:27:12.671Z,100090.31
2024-02-16T23:29:40.388Z,100085.80
2024-02-16T23:32:07.954Z,100086.35
2024-02-16T23:34:35.755Z,100092.73
2024-02-16T23:37:03.590Z,100091.51
2024-02-16T23:39:31.187Z,100094.70
2024-02-16T23:41:58.920Z,100096.60
2024-02-16T23:44:26.252Z,100096.10
2024-02-16T23:46:54.220Z,100098.90
2024-02-16T23:49:21.921Z,100096.15
2024-02-16T23:51:49.656Z,100102.67
2024-02-16T23:54:17.408Z,100098.92
2024-02-16T23:56:45.199Z,100098.61
2024-02-16T23:59:12.945Z,100101.58
